createdAt,value
2022-09-28T00:02:24.220Z,8.70
2022-09-28T00:04:50.993Z,8.60
2022-09-28T00:07:17.611Z,8.60
2022-09-28T00:09:44.201Z,8.70
2022-09-28T00:12:11.741Z,8.60
2022-09-28T00:14:40.457Z,8.60
2022-09-28T00:17:08.174Z,8.60
2022-09-28T00:19:34.795Z,8.60
2022-09-28T00:22:01.371Z,8.60
2022-09-28T00:24:28.328Z,8.70
2022-09-28T00:26:57.261Z,8.70
2022-09-28T00:29:29.925Z,8.70
2022-09-28T00:32:02.942Z,8.70
2022-09-28T00:34:31.895Z,8.70
2022-09-28T00:36:59.650Z,8.70
2022-09-28T00:39:27.053Z,8.70
2022-09-28T00:41:54.264Z,8.70
2022-09-28T00:44:26.976Z,8.70
2022-09-28T00:47:16.374Z,8.60
2022-09-28T00:49:58.287Z,8.60
2022-09-28T00:52:53.611Z,8.60
2022-09-28T00:55:26.657Z,8.60
2022-09-28T00:57:58.038Z,8.60
2022-09-28T01:00:24.831Z,8.60
2022-09-28T01:02:51.692Z,8.60
2022-09-28T01:05:19.688Z,8.60
2022-09-28T01:07:47.591Z,8.60
2022-09-28T01:10:14.973Z,8.70
2022-09-28T01:12:41.573Z,8.70
2022-09-28T01:15:08.709Z,8.70
2022-09-28T01:17:46.419Z,8.70
2022-09-28T01:20:28.881Z,8.70
2022-09-28T01:23:25.400Z,8.70
2022-09-28T01:26:18.122Z,8.70
2022-09-28T01:28:48.107Z,8.70
2022-09-28T01:31:16.703Z,8.60
2022-09-28T01:33:48.685Z,8.70
2022-09-28T01:36:24.985Z,8.70
2022-09-28T01:39:04.960Z,8.70
2022-09-28T01:41:36.253Z,8.70
2022-09-28T01:44:05.873Z,8.70
2022-09-28T01:46:42.063Z,8.70
2022-09-28T01:49:14.943Z,8.70
2022-09-28T01:51:49.921Z,8.70
2022-09-28T01:54:32.863Z,8.70
2022-09-28T01:57:16.063Z,8.70
2022-09-28T01:59:50.894Z,8.70
2022-09-28T02:02:22.353Z,8.70
2022-09-28T02:04:58.592Z,8.70
2022-09-28T02:07:28.648Z,8.70
2022-09-28T02:10:00.983Z,8.70
2022-09-28T02:12:43.734Z,8.70
2022-09-28T02:15:22.942Z,8.70
2022-09-28T02:17:50.194Z,8.70
2022-09-28T02:20:17.299Z,8.70
2022-09-28T02:22:53.432Z,8.70
2022-09-28T02:25:52.996Z,8.70
2022-09-28T02:28:19.691Z,8.70
2022-09-28T02:30:46.594Z,8.70
2022-09-28T02:33:22.595Z,8.70
2022-09-28T02:35:49.411Z,8.70
2022-09-28T02:38:16.883Z,8.70
2022-09-28T02:40:53.702Z,8.70
2022-09-28T02:43:26.796Z,8.70
2022-09-28T02:46:29.693Z,8.60
2022-09-28T02:49:21.814Z,8.60
2022-09-28T02:52:03.828Z,8.60
2022-09-28T02:54:39.555Z,8.60
2022-09-28T02:57:11.796Z,8.60
2022-09-28T02:59:57.318Z,8.60
2022-09-28T03:02:42.674Z,8.50
2022-09-28T03:05:14.755Z,8.50
2022-09-28T03:08:03.679Z,8.50
2022-09-28T03:10:45.560Z,8.50
2022-09-28T03:13:14.435Z,8.50
2022-09-28T03:15:45.182Z,8.40
2022-09-28T03:18:14.534Z,8.40
2022-09-28T03:20:41.135Z,8.40
2022-09-28T03:23:35.935Z,8.40
2022-09-28T03:25:54.763Z,8.40
2022-09-28T03:28:22.041Z,8.40
2022-09-28T03:30:49.084Z,8.40
2022-09-28T03:33:16.021Z,8.40
2022-09-28T03:35:46.116Z,8.40
2022-09-28T03:38:12.749Z,8.40
2022-09-28T03:40:40.209Z,8.30
2022-09-28T03:43:06.905Z,8.40
2022-09-28T03:45:33.703Z,8.30
2022-09-28T03:48:00.523Z,8.30
2022-09-28T03:50:27.520Z,8.30
2022-09-28T03:52:54.449Z,8.40
2022-09-28T03:55:21.055Z,8.30
2022-09-28T03:57:54.715Z,8.30
2022-09-28T04:00:21.547Z,8.30
2022-09-28T04:02:48.197Z,8.30
2022-09-28T04:05:14.940Z,8.30
2022-09-28T04:07:41.736Z,8.30
2022-09-28T04:10:08.947Z,8.30
2022-09-28T04:12:35.581Z,8.30
2022-09-28T04:15:02.270Z,8.30
2022-09-28T04:17:29.207Z,8.30
2022-09-28T04:19:55.890Z,8.30
2022-09-28T04:22:23.351Z,8.30
2022-09-28T04:24:50.021Z,8.30
2022-09-28T04:27:35.244Z,8.30
2022-09-28T04:30:04.113Z,8.20
2022-09-28T04:32:30.946Z,8.30
2022-09-28T04:34:57.573Z,8.20
2022-09-28T04:37:24.243Z,8.20
2022-09-28T04:39:50.942Z,8.20
2022-09-28T04:42:17.589Z,8.20
2022-09-28T04:44:44.202Z,8.20
2022-09-28T04:47:10.864Z,8.20
2022-09-28T04:49:38.264Z,8.20
2022-09-28T04:52:06.875Z,8.20
2022-09-28T04:54:33.672Z,8.20
2022-09-28T04:57:00.307Z,8.20
2022-09-28T04:59:26.953Z,8.20
2022-09-28T05:01:54.074Z,8.20
2022-09-28T05:04:25.602Z,8.20
2022-09-28T05:06:52.688Z,8.20
2022-09-28T05:09:19.375Z,8.10
2022-09-28T05:11:45.973Z,8.10
2022-09-28T05:14:12.778Z,8.10
2022-09-28T05:16:39.568Z,8.10
2022-09-28T05:19:06.941Z,8.10
2022-09-28T05:21:33.608Z,8.10
2022-09-28T05:24:00.344Z,8.10
2022-09-28T05:26:27.012Z,8.10
2022-09-28T05:28:53.705Z,8.10
2022-09-28T05:31:20.382Z,8.10
2022-09-28T05:33:47.146Z,8.10
2022-09-28T05:36:13.919Z,8.10
2022-09-28T05:38:41.238Z,8.10
2022-09-28T05:41:07.951Z,8.00
2022-09-28T05:43:34.603Z,8.10
2022-09-28T05:46:01.408Z,8.00
2022-09-28T05:48:28.315Z,8.00
2022-09-28T05:50:58.604Z,8.00
2022-09-28T05:53:25.420Z,8.00
2022-09-28T05:55:52.036Z,8.00
2022-09-28T05:58:18.675Z,8.00
2022-09-28T06:00:45.351Z,8.00
2022-09-28T06:03:13.615Z,8.00
2022-09-28T06:05:41.005Z,8.10
2022-09-28T06:08:10.227Z,8.00
2022-09-28T06:10:37.424Z,8.00
2022-09-28T06:13:04.357Z,8.00
2022-09-28T06:15:33.605Z,8.00
2022-09-28T06:18:05.745Z,8.00
2022-09-28T06:20:35.635Z,8.00
2022-09-28T06:23:03.347Z,8.00
2022-09-28T06:25:29.994Z,8.00
2022-09-28T06:28:03.652Z,8.00
2022-09-28T06:30:32.832Z,8.00
2022-09-28T06:33:00.984Z,8.00
2022-09-28T06:35:30.354Z,8.00
2022-09-28T06:37:58.160Z,8.00
2022-09-28T06:40:24.983Z,8.10
2022-09-28T06:42:59.656Z,8.10
2022-09-28T06:45:27.823Z,8.10
2022-09-28T06:48:02.853Z,8.20
2022-09-28T06:50:37.314Z,8.20
2022-09-28T06:53:06.675Z,8.20
2022-09-28T06:55:33.329Z,8.20
2022-09-28T06:58:05.635Z,8.20
2022-09-28T07:00:34.694Z,8.20
2022-09-28T07:03:07.685Z,8.20
2022-09-28T07:05:37.031Z,8.20
2022-09-28T07:08:07.095Z,8.20
2022-09-28T07:10:34.100Z,8.20
2022-09-28T07:13:04.741Z,8.20
2022-09-28T07:15:32.246Z,8.20
2022-09-28T07:18:04.381Z,8.20
2022-09-28T07:20:47.028Z,8.20
2022-09-28T07:23:19.927Z,8.30
2022-09-28T07:25:50.168Z,8.30
2022-09-28T07:28:18.987Z,8.30
2022-09-28T07:30:45.727Z,8.30
2022-09-28T07:33:14.426Z,8.40
2022-09-28T07:35:42.355Z,8.40
2022-09-28T07:38:11.005Z,8.40
2022-09-28T07:40:56.553Z,8.40
2022-09-28T07:43:23.276Z,8.40
2022-09-28T07:45:52.448Z,8.50
2022-09-28T07:48:19.255Z,8.50
2022-09-28T07:50:51.730Z,8.60
2022-09-28T07:53:20.121Z,8.60
2022-09-28T07:55:56.339Z,8.70
2022-09-28T07:58:23.295Z,8.70
2022-09-28T08:00:50.727Z,8.70
2022-09-28T08:03:18.726Z,8.70
2022-09-28T08:05:46.700Z,8.70
2022-09-28T08:08:14.237Z,8.80
2022-09-28T08:10:46.830Z,8.80
2022-09-28T08:13:15.154Z,8.80
2022-09-28T08:15:42.477Z,8.90
2022-09-28T08:18:09.553Z,8.90
2022-09-28T08:20:54.712Z,8.90
2022-09-28T08:23:21.539Z,8.90
2022-09-28T08:25:49.191Z,9.00
2022-09-28T08:28:19.757Z,9.00
2022-09-28T08:30:47.153Z,9.00
2022-09-28T08:33:15.133Z,9.00
2022-09-28T08:35:42.306Z,9.00
2022-09-28T08:38:09.640Z,9.00
2022-09-28T08:41:06.214Z,9.00
2022-09-28T08:44:00.149Z,9.00
2022-09-28T08:46:33.406Z,9.10
2022-09-28T08:49:37.829Z,9.10
2022-09-28T08:52:20.578Z,9.10
2022-09-28T08:55:07.208Z,9.20
2022-09-28T08:57:41.895Z,9.20
2022-09-28T09:00:22.743Z,9.20
2022-09-28T09:02:50.109Z,9.20
2022-09-28T09:05:20.368Z,9.20
2022-09-28T09:08:08.720Z,9.30
2022-09-28T09:10:59.894Z,9.30
2022-09-28T09:13:26.944Z,9.40
2022-09-28T09:16:20.229Z,9.40
2022-09-28T09:18:54.712Z,9.40
2022-09-28T09:21:33.683Z,9.40
2022-09-28T09:24:22.043Z,9.40
2022-09-28T09:26:57.183Z,9.40
2022-09-28T09:30:02.875Z,9.40
2022-09-28T09:32:53.331Z,9.40
2022-09-28T09:36:03.457Z,9.50
2022-09-28T09:38:58.076Z,9.40
2022-09-28T09:41:40.268Z,9.40
2022-09-28T09:44:22.066Z,9.40
2022-09-28T09:46:57.674Z,9.50
2022-09-28T09:49:38.888Z,9.50
2022-09-28T09:52:05.470Z,9.50
2022-09-28T09:54:43.604Z,9.60
2022-09-28T09:57:15.015Z,9.70
2022-09-28T09:59:42.998Z,9.80
2022-09-28T10:02:21.177Z,9.90
2022-09-28T10:04:50.017Z,9.90
2022-09-28T10:07:26.165Z,10.00
2022-09-28T10:10:00.515Z,10.00
2022-09-28T10:12:27.241Z,10.10
2022-09-28T10:14:55.237Z,10.10
2022-09-28T10:17:27.152Z,10.10
2022-09-28T10:19:56.764Z,10.20
2022-09-28T10:22:27.344Z,10.20
2022-09-28T10:24:57.534Z,10.20
2022-09-28T10:27:31.815Z,10.20
2022-09-28T10:30:14.700Z,10.20
2022-09-28T10:32:46.554Z,10.20
2022-09-28T10:35:19.238Z,10.20
2022-09-28T10:37:47.442Z,10.20
2022-09-28T10:40:33.120Z,10.20
2022-09-28T10:43:02.496Z,10.20
2022-09-28T10:45:35.640Z,10.30
2022-09-28T10:48:06.187Z,10.30
2022-09-28T10:50:34.312Z,10.40
2022-09-28T10:53:20.586Z,10.40
2022-09-28T10:56:05.138Z,10.40
2022-09-28T10:58:40.403Z,10.40
2022-09-28T11:01:11.430Z,10.40
2022-09-28T11:03:58.687Z,10.50
2022-09-28T11:06:39.101Z,10.50
2022-09-28T11:09:33.787Z,10.50
2022-09-28T11:12:05.029Z,10.50
2022-09-28T11:14:42.165Z,10.50
2022-09-28T11:17:38.623Z,10.50
2022-09-28T11:20:27.303Z,10.60
2022-09-28T11:22:58.422Z,10.60
2022-09-28T11:25:28.287Z,10.50
2022-09-28T11:27:56.583Z,10.50
2022-09-28T11:30:51.117Z,10.50
2022-09-28T11:33:31.023Z,10.50
2022-09-28T11:36:14.695Z,10.50
2022-09-28T11:39:11.382Z,10.50
2022-09-28T11:41:53.135Z,10.50
2022-09-28T11:44:36.503Z,10.50
2022-09-28T11:47:18.007Z,10.50
2022-09-28T11:49:52.228Z,10.50
2022-09-28T11:52:27.674Z,10.50
2022-09-28T11:55:02.933Z,10.40
2022-09-28T11:57:36.323Z,10.40
2022-09-28T12:00:28.566Z,10.40
2022-09-28T12:03:12.205Z,10.40
2022-09-28T12:05:44.484Z,10.40
2022-09-28T12:08:25.476Z,10.40
2022-09-28T12:11:06.972Z,10.40
2022-09-28T12:13:39.979Z,10.40
2022-09-28T12:19:16.514Z,10.40
2022-09-28T12:21:51.390Z,10.40
2022-09-28T12:24:47.525Z,10.50
2022-09-28T12:27:27.240Z,10.50
2022-09-28T12:30:23.555Z,10.60
2022-09-28T12:33:07.249Z,10.70
2022-09-28T12:36:09.897Z,10.80
2022-09-28T12:38:36.511Z,11.00
2022-09-28T12:41:36.866Z,11.10
2022-09-28T12:44:26.075Z,11.30
2022-09-28T12:47:14.786Z,11.30
2022-09-28T12:53:22.087Z,11.50
2022-09-28T12:56:11.691Z,11.60
2022-09-28T12:59:04.985Z,11.70
2022-09-28T13:01:51.244Z,11.70
2022-09-28T13:04:37.126Z,11.80
2022-09-28T13:07:13.190Z,11.80
2022-09-28T13:10:14.616Z,11.90
2022-09-28T13:13:22.019Z,11.90
2022-09-28T13:16:00.357Z,11.80
2022-09-28T13:19:08.089Z,11.80
2022-09-28T13:21:54.997Z,11.80
2022-09-28T13:24:32.683Z,11.70
2022-09-28T13:27:06.723Z,11.80
2022-09-28T13:29:34.987Z,11.80
2022-09-28T13:32:03.797Z,11.80
2022-09-28T13:34:35.987Z,11.80
2022-09-28T13:37:24.044Z,11.90
2022-09-28T13:39:56.570Z,11.90
2022-09-28T13:42:34.032Z,11.90
2022-09-28T13:45:22.531Z,11.90
2022-09-28T13:48:00.996Z,12.00
2022-09-28T13:50:34.403Z,12.00
2022-09-28T13:53:15.454Z,12.00
2022-09-28T13:56:03.789Z,12.00
2022-09-28T13:58:36.417Z,12.10
2022-09-28T14:01:14.706Z,12.10
2022-09-28T14:03:57.160Z,12.10
2022-09-28T14:06:32.414Z,12.20
2022-09-28T14:09:22.031Z,12.20
2022-09-28T14:12:00.537Z,12.20
2022-09-28T14:14:27.248Z,12.30
2022-09-28T14:17:23.458Z,12.30
2022-09-28T14:20:03.792Z,12.40
2022-09-28T14:22:57.828Z,12.50
2022-09-28T14:25:31.846Z,12.50
2022-09-28T14:28:36.787Z,12.50
2022-09-28T14:31:11.169Z,12.50
2022-09-28T14:33:39.302Z,12.60
2022-09-28T14:36:46.901Z,12.60
2022-09-28T14:39:45.068Z,12.50
2022-09-28T14:42:15.594Z,12.60
2022-09-28T14:45:06.781Z,12.50
2022-09-28T14:47:38.145Z,12.50
2022-09-28T14:50:24.704Z,12.50
2022-09-28T14:53:13.543Z,12.50
2022-09-28T14:55:50.605Z,12.50
2022-09-28T14:58:23.110Z,12.40
2022-09-28T15:00:55.343Z,12.40
2022-09-28T15:03:24.263Z,12.40
2022-09-28T15:05:51.075Z,12.40
2022-09-28T15:08:20.950Z,12.40
2022-09-28T15:10:49.794Z,12.40
2022-09-28T15:13:20.696Z,12.40
2022-09-28T15:15:50.603Z,12.40
2022-09-28T15:18:27.529Z,12.50
2022-09-28T15:20:56.530Z,12.50
2022-09-28T15:23:41.154Z,12.60
2022-09-28T15:26:28.635Z,12.60
2022-09-28T15:28:59.315Z,12.70
2022-09-28T15:31:28.157Z,12.70
2022-09-28T15:34:13.410Z,12.70
2022-09-28T15:36:42.145Z,12.70
2022-09-28T15:39:33.968Z,12.80
2022-09-28T15:42:01.124Z,12.80
2022-09-28T15:44:42.848Z,12.80
2022-09-28T15:47:13.794Z,12.80
2022-09-28T15:49:53.201Z,12.80
2022-09-28T15:52:38.554Z,12.80
2022-09-28T15:55:18.165Z,12.80
2022-09-28T15:57:44.804Z,12.80
2022-09-28T16:00:20.693Z,12.70
2022-09-28T16:03:19.093Z,12.70
2022-09-28T16:05:59.155Z,12.70
2022-09-28T16:08:48.775Z,12.60
2022-09-28T16:11:26.343Z,12.50
2022-09-28T16:14:06.339Z,12.40
2022-09-28T16:16:49.316Z,12.40
2022-09-28T16:19:36.890Z,12.30
2022-09-28T16:22:07.326Z,12.20
2022-09-28T16:24:38.980Z,12.20
2022-09-28T16:27:26.876Z,12.20
2022-09-28T16:30:27.195Z,12.20
2022-09-28T16:32:58.061Z,12.10
2022-09-28T16:35:42.458Z,12.10
2022-09-28T16:38:12.059Z,12.10
2022-09-28T16:40:49.710Z,12.00
2022-09-28T16:43:19.475Z,11.90
2022-09-28T16:45:46.692Z,11.90
2022-09-28T16:48:16.261Z,11.80
2022-09-28T16:50:42.882Z,11.70
2022-09-28T16:53:37.065Z,11.60
2022-09-28T16:56:04.681Z,11.60
2022-09-28T16:58:31.920Z,11.50
2022-09-28T17:00:59.553Z,11.40
2022-09-28T17:03:27.639Z,11.40
2022-09-28T17:05:55.210Z,11.40
2022-09-28T17:08:24.025Z,11.40
2022-09-28T17:13:45.095Z,11.30
2022-09-28T17:16:17.789Z,11.30
2022-09-28T17:18:45.992Z,11.30
2022-09-28T17:21:18.459Z,11.30
2022-09-28T17:23:46.823Z,11.20
2022-09-28T17:26:27.809Z,11.20
2022-09-28T17:28:54.534Z,11.10
2022-09-28T17:31:21.165Z,11.10
2022-09-28T17:33:47.847Z,11.00
2022-09-28T17:36:16.971Z,11.00
2022-09-28T17:38:44.324Z,11.00
2022-09-28T17:41:20.180Z,11.00
2022-09-28T17:43:48.313Z,10.90
2022-09-28T17:46:26.118Z,10.90
2022-09-28T17:48:53.551Z,10.90
2022-09-28T17:51:20.205Z,10.90
2022-09-28T17:53:46.855Z,10.90
2022-09-28T17:56:13.581Z,10.80
2022-09-28T17:58:40.190Z,10.80
2022-09-28T18:01:08.643Z,10.80
2022-09-28T18:03:35.343Z,10.80
2022-09-28T18:06:07.142Z,10.70
2022-09-28T18:08:34.619Z,10.70
2022-09-28T18:11:08.937Z,10.60
2022-09-28T18:13:35.674Z,10.70
2022-09-28T18:16:05.814Z,10.60
2022-09-28T18:18:38.353Z,10.60
2022-09-28T18:21:05.896Z,10.60
2022-09-28T18:23:36.198Z,10.60
2022-09-28T18:26:06.537Z,10.50
2022-09-28T18:28:33.144Z,10.50
2022-09-28T18:30:59.790Z,10.50
2022-09-28T18:33:26.585Z,10.50
2022-09-28T18:35:54.587Z,10.40
2022-09-28T18:38:21.602Z,10.30
2022-09-28T18:40:48.518Z,10.30
2022-09-28T18:43:15.803Z,10.30
2022-09-28T18:45:42.611Z,10.20
2022-09-28T18:48:09.792Z,10.20
2022-09-28T18:50:36.464Z,10.20
2022-09-28T18:53:12.436Z,10.20
2022-09-28T18:55:42.864Z,10.20
2022-09-28T18:58:11.708Z,10.20
2022-09-28T19:00:42.079Z,10.20
2022-09-28T19:03:11.089Z,10.20
2022-09-28T19:05:42.738Z,10.20
2022-09-28T19:08:10.081Z,10.20
2022-09-28T19:10:37.019Z,10.20
2022-09-28T19:13:03.715Z,10.20
2022-09-28T19:15:30.486Z,10.10
2022-09-28T19:17:58.030Z,10.10
2022-09-28T19:20:24.775Z,10.10
2022-09-28T19:22:51.468Z,10.10
2022-09-28T19:25:18.147Z,10.10
2022-09-28T19:27:44.895Z,10.10
2022-09-28T19:30:12.190Z,10.00
2022-09-28T19:32:39.199Z,10.00
2022-09-28T19:35:05.924Z,9.90
2022-09-28T19:37:35.407Z,9.90
2022-09-28T19:40:06.453Z,9.90
2022-09-28T19:42:35.567Z,9.90
2022-09-28T19:45:03.090Z,9.90
2022-09-28T19:47:29.782Z,9.80
2022-09-28T19:49:56.575Z,9.80
2022-09-28T19:52:23.287Z,9.80
2022-09-28T19:54:58.050Z,9.80
2022-09-28T19:57:30.649Z,9.80
2022-09-28T20:00:02.026Z,9.70
2022-09-28T20:02:30.910Z,9.70
2022-09-28T20:04:57.577Z,9.70
2022-09-28T20:07:24.357Z,9.70
2022-09-28T20:09:51.631Z,9.60
2022-09-28T20:12:18.298Z,9.60
2022-09-28T20:14:44.914Z,9.60
2022-09-28T20:17:11.558Z,9.60
2022-09-28T20:19:38.344Z,9.50
2022-09-28T20:22:05.076Z,9.50
2022-09-28T20:24:32.508Z,9.50
2022-09-28T20:26:59.322Z,9.50
2022-09-28T20:29:26.608Z,9.40
2022-09-28T20:31:53.253Z,9.40
2022-09-28T20:34:19.967Z,9.40
2022-09-28T20:36:46.716Z,9.30
2022-09-28T20:39:13.583Z,9.30
2022-09-28T20:41:41.069Z,9.30
2022-09-28T20:44:07.868Z,9.30
2022-09-28T20:46:35.855Z,9.30
2022-09-28T20:49:04.187Z,9.20
2022-09-28T20:51:31.125Z,9.20
2022-09-28T20:53:58.812Z,9.10
2022-09-28T20:56:38.590Z,9.10
2022-09-28T20:59:11.122Z,9.10
2022-09-28T21:01:38.218Z,9.00
2022-09-28T21:04:07.182Z,9.00
2022-09-28T21:06:39.392Z,8.90
2022-09-28T21:09:08.002Z,8.90
2022-09-28T21:11:41.538Z,8.90
2022-09-28T21:14:10.047Z,8.90
2022-09-28T21:16:36.756Z,8.80
2022-09-28T21:19:03.802Z,8.70
2022-09-28T21:21:30.634Z,8.80
2022-09-28T21:23:58.165Z,8.70
2022-09-28T21:26:27.373Z,8.70
2022-09-28T21:28:53.995Z,8.70
2022-09-28T21:31:27.515Z,8.60
2022-09-28T21:33:55.377Z,8.60
2022-09-28T21:36:22.027Z,8.50
2022-09-28T21:38:49.238Z,8.50
2022-09-28T21:41:15.908Z,8.50
2022-09-28T21:43:42.616Z,8.40
2022-09-28T21:46:10.189Z,8.40
2022-09-28T21:48:36.884Z,8.40
2022-09-28T21:51:09.098Z,8.30
2022-09-28T21:53:37.074Z,8.30
2022-09-28T21:56:06.303Z,8.20
2022-09-28T21:58:34.803Z,8.20
2022-09-28T22:01:02.786Z,8.20
2022-09-28T22:03:31.281Z,8.20
2022-09-28T22:05:58.161Z,8.20
2022-09-28T22:08:25.415Z,8.10
2022-09-28T22:11:04.460Z,8.00
2022-09-28T22:13:42.863Z,8.00
2022-09-28T22:16:10.993Z,8.00
2022-09-28T22:18:38.135Z,8.00
2022-09-28T22:21:09.778Z,7.90
2022-09-28T22:23:37.880Z,7.90
2022-09-28T22:26:20.022Z,7.90
2022-09-28T22:28:47.826Z,7.80
2022-09-28T22:31:16.348Z,7.80
2022-09-28T22:33:43.365Z,7.70
2022-09-28T22:36:10.212Z,7.70
2022-09-28T22:38:37.590Z,7.60
2022-09-28T22:41:04.296Z,7.60
2022-09-28T22:43:32.232Z,7.60
2022-09-28T22:46:07.393Z,7.60
2022-09-28T22:48:34.839Z,7.60
2022-09-28T22:51:03.797Z,7.50
2022-09-28T22:53:30.818Z,7.50
2022-09-28T22:55:58.769Z,7.50
2022-09-28T22:58:25.355Z,7.40
2022-09-28T23:00:52.610Z,7.40
2022-09-28T23:03:19.504Z,7.40
2022-09-28T23:05:56.436Z,7.40
2022-09-28T23:08:24.035Z,7.40
2022-09-28T23:10:51.346Z,7.40
2022-09-28T23:13:18.871Z,7.40
2022-09-28T23:15:55.896Z,7.40
2022-09-28T23:18:23.068Z,7.40
2022-09-28T23:20:54.512Z,7.40
2022-09-28T23:23:21.267Z,7.40
2022-09-28T23:25:47.968Z,7.40
2022-09-28T23:28:15.052Z,7.40
2022-09-28T23:30:41.692Z,7.40
2022-09-28T23:33:15.456Z,7.30
2022-09-28T23:35:42.158Z,7.40
2022-09-28T23:38:17.952Z,7.40
2022-09-28T23:40:48.097Z,7.40
2022-09-28T23:43:15.232Z,7.40
2022-09-28T23:45:45.545Z,7.40
2022-09-28T23:48:15.098Z,7.40
2022-09-28T23:50:43.456Z,7.40
2022-09-28T23:53:11.915Z,7.40
2022-09-28T23:55:38.555Z,7.40
2022-09-28T23:58:05.192Z,7.40
